sensor_id;sensor_type;location;lat;lon;timestamp;temperature;humidity
21108;DHT22;10712;52.944;9.098;2023-08-31T00:00:43;13.60;91.50
21108;DHT22;10712;52.944;9.098;2023-08-31T00:03:10;13.60;91.30
21108;DHT22;10712;52.944;9.098;2023-08-31T00:05:39;13.60;91.30
21108;DHT22;10712;52.944;9.098;2023-08-31T00:08:06;13.50;91.40
21108;DHT22;10712;52.944;9.098;2023-08-31T00:10:34;13.50;91.40
21108;DHT22;10712;52.944;9.098;2023-08-31T00:13:01;13.50;91.20
21108;DHT22;10712;52.944;9.098;2023-08-31T00:15:28;13.40;91.10
21108;DHT22;10712;52.944;9.098;2023-08-31T00:18:03;13.30;90.80
21108;DHT22;10712;52.944;9.098;2023-08-31T00:20:32;13.30;91.00
21108;DHT22;10712;52.944;9.098;2023-08-31T00:23:01;13.30;91.00
21108;DHT22;10712;52.944;9.098;2023-08-31T00:25:27;13.20;91.10
21108;DHT22;10712;52.944;9.098;2023-08-31T00:27:53;13.20;91.00
21108;DHT22;10712;52.944;9.098;2023-08-31T00:30:20;13.20;91.00
21108;DHT22;10712;52.944;9.098;2023-08-31T00:32:46;13.20;91.10
21108;DHT22;10712;52.944;9.098;2023-08-31T00:35:15;13.10;91.00
21108;DHT22;10712;52.944;9.098;2023-08-31T00:37:41;13.10;91.00
21108;DHT22;10712;52.944;9.098;2023-08-31T00:40:07;13.10;91.00
21108;DHT22;10712;52.944;9.098;2023-08-31T00:42:35;13.10;91.10
21108;DHT22;10712;52.944;9.098;2023-08-31T00:45:03;13.10;91.00
21108;DHT22;10712;52.944;9.098;2023-08-31T00:47:29;13.10;91.00
21108;DHT22;10712;52.944;9.098;2023-08-31T00:49:55;13.00;90.90
21108;DHT22;10712;52.944;9.098;2023-08-31T00:52:21;13.00;90.90
21108;DHT22;10712;52.944;9.098;2023-08-31T00:54:49;13.00;90.80
21108;DHT22;10712;52.944;9.098;2023-08-31T00:57:17;13.00;90.50
21108;DHT22;10712;52.944;9.098;2023-08-31T00:59:43;13.00;90.30
21108;DHT22;10712;52.944;9.098;2023-08-31T01:02:17;12.90;90.50
21108;DHT22;10712;52.944;9.098;2023-08-31T01:05:03;12.90;90.30
21108;DHT22;10712;52.944;9.098;2023-08-31T01:07:52;12.80;90.40
21108;DHT22;10712;52.944;9.098;2023-08-31T01:10:48;12.80;90.50
21108;DHT22;10712;52.944;9.098;2023-08-31T01:13:22;12.80;90.50
21108;DHT22;10712;52.944;9.098;2023-08-31T01:15:54;12.80;90.60
21108;DHT22;10712;52.944;9.098;2023-08-31T01:18:25;12.70;90.50
21108;DHT22;10712;52.944;9.098;2023-08-31T01:21:00;12.70;90.20
21108;DHT22;10712;52.944;9.098;2023-08-31T01:23:53;12.70;90.60
21108;DHT22;10712;52.944;9.098;2023-08-31T01:26:21;12.70;90.60
21108;DHT22;10712;52.944;9.098;2023-08-31T01:28:50;12.70;90.70
21108;DHT22;10712;52.944;9.098;2023-08-31T01:31:17;12.70;90.60
21108;DHT22;10712;52.944;9.098;2023-08-31T01:33:43;12.70;90.50
21108;DHT22;10712;52.944;9.098;2023-08-31T01:36:33;12.70;90.60
21108;DHT22;10712;52.944;9.098;2023-08-31T01:39:26;12.70;90.60
21108;DHT22;10712;52.944;9.098;2023-08-31T01:41:56;12.70;90.40
21108;DHT22;10712;52.944;9.098;2023-08-31T01:44:26;12.60;90.40
21108;DHT22;10712;52.944;9.098;2023-08-31T01:47:04;12.60;90.50
21108;DHT22;10712;52.944;9.098;2023-08-31T01:49:40;12.60;90.50
21108;DHT22;10712;52.944;9.098;2023-08-31T01:52:06;12.60;90.40
21108;DHT22;10712;52.944;9.098;2023-08-31T01:54:32;12.60;90.40
21108;DHT22;10712;52.944;9.098;2023-08-31T01:56:59;12.60;90.70
21108;DHT22;10712;52.944;9.098;2023-08-31T01:59:25;12.60;90.60
21108;DHT22;10712;52.944;9.098;2023-08-31T02:01:52;12.50;90.60
21108;DHT22;10712;52.944;9.098;2023-08-31T02:04:18;12.50;90.50
21108;DHT22;10712;52.944;9.098;2023-08-31T02:06:44;12.50;90.40
21108;DHT22;10712;52.944;9.098;2023-08-31T02:09:10;12.50;90.40
21108;DHT22;10712;52.944;9.098;2023-08-31T02:11:36;12.40;90.50
21108;DHT22;10712;52.944;9.098;2023-08-31T02:14:06;12.40;90.60
21108;DHT22;10712;52.944;9.098;2023-08-31T02:16:33;12.40;90.70
21108;DHT22;10712;52.944;9.098;2023-08-31T02:18:59;12.40;90.60
21108;DHT22;10712;52.944;9.098;2023-08-31T02:21:25;12.40;90.70
21108;DHT22;10712;52.944;9.098;2023-08-31T02:23:52;12.40;90.60
21108;DHT22;10712;52.944;9.098;2023-08-31T02:26:18;12.30;90.70
21108;DHT22;10712;52.944;9.098;2023-08-31T02:28:45;12.30;90.70
21108;DHT22;10712;52.944;9.098;2023-08-31T02:31:12;12.30;90.80
21108;DHT22;10712;52.944;9.098;2023-08-31T02:33:39;12.30;90.90
21108;DHT22;10712;52.944;9.098;2023-08-31T02:36:05;12.30;90.90
21108;DHT22;10712;52.944;9.098;2023-08-31T02:38:31;12.30;90.90
21108;DHT22;10712;52.944;9.098;2023-08-31T02:40:57;12.30;90.80
21108;DHT22;10712;52.944;9.098;2023-08-31T02:43:23;12.20;90.80
21108;DHT22;10712;52.944;9.098;2023-08-31T02:45:58;12.20;90.70
21108;DHT22;10712;52.944;9.098;2023-08-31T02:48:24;12.20;90.70
21108;DHT22;10712;52.944;9.098;2023-08-31T02:50:50;12.20;90.60
21108;DHT22;10712;52.944;9.098;2023-08-31T02:53:16;12.10;90.40
21108;DHT22;10712;52.944;9.098;2023-08-31T02:55:42;12.10;90.40
21108;DHT22;10712;52.944;9.098;2023-08-31T02:58:08;12.10;90.40
21108;DHT22;10712;52.944;9.098;2023-08-31T03:00:34;12.00;90.30
21108;DHT22;10712;52.944;9.098;2023-08-31T03:02:59;12.00;90.20
21108;DHT22;10712;52.944;9.098;2023-08-31T03:05:25;12.00;90.20
21108;DHT22;10712;52.944;9.098;2023-08-31T03:07:51;11.90;90.00
21108;DHT22;10712;52.944;9.098;2023-08-31T03:10:17;11.90;90.10
21108;DHT22;10712;52.944;9.098;2023-08-31T03:12:43;11.90;90.00
21108;DHT22;10712;52.944;9.098;2023-08-31T03:15:09;11.90;90.10
21108;DHT22;10712;52.944;9.098;2023-08-31T03:17:35;11.90;89.90
21108;DHT22;10712;52.944;9.098;2023-08-31T03:20:00;11.80;89.90
21108;DHT22;10712;52.944;9.098;2023-08-31T03:22:26;11.80;89.80
21108;DHT22;10712;52.944;9.098;2023-08-31T03:24:52;11.70;89.80
21108;DHT22;10712;52.944;9.098;2023-08-31T03:27:17;11.70;89.90
21108;DHT22;10712;52.944;9.098;2023-08-31T03:29:44;11.70;89.80
21108;DHT22;10712;52.944;9.098;2023-08-31T03:32:11;11.70;89.90
21108;DHT22;10712;52.944;9.098;2023-08-31T03:34:37;11.60;89.80
21108;DHT22;10712;52.944;9.098;2023-08-31T03:37:03;11.60;89.80
21108;DHT22;10712;52.944;9.098;2023-08-31T03:39:29;11.60;89.90
21108;DHT22;10712;52.944;9.098;2023-08-31T03:41:55;11.60;90.30
21108;DHT22;10712;52.944;9.098;2023-08-31T03:44:21;11.60;90.40
21108;DHT22;10712;52.944;9.098;2023-08-31T03:46:49;11.60;90.40
21108;DHT22;10712;52.944;9.098;2023-08-31T03:49:15;11.60;90.70
21108;DHT22;10712;52.944;9.098;2023-08-31T03:51:40;11.60;90.60
21108;DHT22;10712;52.944;9.098;2023-08-31T03:54:07;11.60;90.80
21108;DHT22;10712;52.944;9.098;2023-08-31T03:56:32;11.60;90.90
21108;DHT22;10712;52.944;9.098;2023-08-31T03:59:02;11.70;90.90
21108;DHT22;10712;52.944;9.098;2023-08-31T04:01:31;11.60;90.70
21108;DHT22;10712;52.944;9.098;2023-08-31T04:03:57;11.60;90.80
21108;DHT22;10712;52.944;9.098;2023-08-31T04:06:23;11.60;90.90
21108;DHT22;10712;52.944;9.098;2023-08-31T04:08:48;11.60;91.00
21108;DHT22;10712;52.944;9.098;2023-08-31T04:11:14;11.60;90.90
21108;DHT22;10712;52.944;9.098;2023-08-31T04:13:40;11.60;91.00
21108;DHT22;10712;52.944;9.098;2023-08-31T04:16:07;11.60;91.00
21108;DHT22;10712;52.944;9.098;2023-08-31T04:18:33;11.60;90.90
21108;DHT22;10712;52.944;9.098;2023-08-31T04:20:59;11.60;91.00
21108;DHT22;10712;52.944;9.098;2023-08-31T04:23:27;11.60;90.90
21108;DHT22;10712;52.944;9.098;2023-08-31T04:25:53;11.60;91.00
21108;DHT22;10712;52.944;9.098;2023-08-31T04:28:19;11.60;91.00
21108;DHT22;10712;52.944;9.098;2023-08-31T04:30:45;11.60;91.00
21108;DHT22;10712;52.944;9.098;2023-08-31T04:33:10;11.60;90.90
21108;DHT22;10712;52.944;9.098;2023-08-31T04:35:36;11.50;90.90
21108;DHT22;10712;52.944;9.098;2023-08-31T04:38:02;11.50;90.80
21108;DHT22;10712;52.944;9.098;2023-08-31T04:40:28;11.50;90.80
21108;DHT22;10712;52.944;9.098;2023-08-31T04:42:57;11.50;90.90
21108;DHT22;10712;52.944;9.098;2023-08-31T04:45:23;11.40;91.10
21108;DHT22;10712;52.944;9.098;2023-08-31T04:47:49;11.40;91.20
21108;DHT22;10712;52.944;9.098;2023-08-31T04:50:16;11.40;91.40
21108;DHT22;10712;52.944;9.098;2023-08-31T04:52:42;11.40;91.50
21108;DHT22;10712;52.944;9.098;2023-08-31T04:55:08;11.40;91.50
21108;DHT22;10712;52.944;9.098;2023-08-31T04:57:35;11.40;91.50
21108;DHT22;10712;52.944;9.098;2023-08-31T05:00:00;11.40;91.60
21108;DHT22;10712;52.944;9.098;2023-08-31T05:02:27;11.50;91.80
21108;DHT22;10712;52.944;9.098;2023-08-31T05:04:53;11.50;91.70
21108;DHT22;10712;52.944;9.098;2023-08-31T05:07:19;11.50;91.70
21108;DHT22;10712;52.944;9.098;2023-08-31T05:09:45;11.50;91.80
21108;DHT22;10712;52.944;9.098;2023-08-31T05:12:11;11.50;91.90
21108;DHT22;10712;52.944;9.098;2023-08-31T05:14:37;11.60;92.00
21108;DHT22;10712;52.944;9.098;2023-08-31T05:17:05;11.60;92.00
21108;DHT22;10712;52.944;9.098;2023-08-31T05:19:31;11.60;92.00
21108;DHT22;10712;52.944;9.098;2023-08-31T05:21:56;11.60;92.00
21108;DHT22;10712;52.944;9.098;2023-08-31T05:24:22;11.70;92.10
21108;DHT22;10712;52.944;9.098;2023-08-31T05:26:51;11.70;92.30
21108;DHT22;10712;52.944;9.098;2023-08-31T05:29:17;11.70;92.40
21108;DHT22;10712;52.944;9.098;2023-08-31T05:31:43;11.80;92.50
21108;DHT22;10712;52.944;9.098;2023-08-31T05:34:16;11.80;92.60
21108;DHT22;10712;52.944;9.098;2023-08-31T05:36:43;11.90;92.60
21108;DHT22;10712;52.944;9.098;2023-08-31T05:39:09;11.90;92.70
21108;DHT22;10712;52.944;9.098;2023-08-31T05:41:35;11.90;92.80
21108;DHT22;10712;52.944;9.098;2023-08-31T05:44:02;11.90;92.80
21108;DHT22;10712;52.944;9.098;2023-08-31T05:46:27;11.90;92.90
21108;DHT22;10712;52.944;9.098;2023-08-31T05:48:53;12.00;92.90
21108;DHT22;10712;52.944;9.098;2023-08-31T05:51:19;12.00;93.00
21108;DHT22;10712;52.944;9.098;2023-08-31T05:53:45;12.00;93.10
21108;DHT22;10712;52.944;9.098;2023-08-31T05:56:10;12.00;93.10
21108;DHT22;10712;52.944;9.098;2023-08-31T05:58:37;12.10;93.20
21108;DHT22;10712;52.944;9.098;2023-08-31T06:01:04;12.10;93.20
21108;DHT22;10712;52.944;9.098;2023-08-31T06:03:30;12.10;93.30
21108;DHT22;10712;52.944;9.098;2023-08-31T06:05:58;12.20;93.30
21108;DHT22;10712;52.944;9.098;2023-08-31T06:08:24;12.20;93.40
21108;DHT22;10712;52.944;9.098;2023-08-31T06:10:51;12.20;93.50
21108;DHT22;10712;52.944;9.098;2023-08-31T06:13:17;12.30;93.60
21108;DHT22;10712;52.944;9.098;2023-08-31T06:15:43;12.30;93.60
21108;DHT22;10712;52.944;9.098;2023-08-31T06:18:10;12.30;93.60
21108;DHT22;10712;52.944;9.098;2023-08-31T06:20:36;12.40;93.60
21108;DHT22;10712;52.944;9.098;2023-08-31T06:23:02;12.40;93.60
21108;DHT22;10712;52.944;9.098;2023-08-31T06:25:28;12.40;93.60
21108;DHT22;10712;52.944;9.098;2023-08-31T06:27:54;12.50;93.60
21108;DHT22;10712;52.944;9.098;2023-08-31T06:30:20;12.50;93.70
21108;DHT22;10712;52.944;9.098;2023-08-31T06:32:46;12.50;93.60
21108;DHT22;10712;52.944;9.098;2023-08-31T06:35:13;12.60;93.60
21108;DHT22;10712;52.944;9.098;2023-08-31T06:37:43;12.60;93.50
21108;DHT22;10712;52.944;9.098;2023-08-31T06:40:10;12.60;93.60
21108;DHT22;10712;52.944;9.098;2023-08-31T06:42:36;12.60;93.60
21108;DHT22;10712;52.944;9.098;2023-08-31T06:45:07;12.70;93.80
21108;DHT22;10712;52.944;9.098;2023-08-31T06:47:33;12.70;93.80
21108;DHT22;10712;52.944;9.098;2023-08-31T06:50:00;12.70;93.90
21108;DHT22;10712;52.944;9.098;2023-08-31T06:52:26;12.80;93.90
21108;DHT22;10712;52.944;9.098;2023-08-31T06:54:53;12.80;93.80
21108;DHT22;10712;52.944;9.098;2023-08-31T06:57:23;12.80;93.90
21108;DHT22;10712;52.944;9.098;2023-08-31T06:59:50;12.90;93.90
21108;DHT22;10712;52.944;9.098;2023-08-31T07:02:16;12.90;93.90
21108;DHT22;10712;52.944;9.098;2023-08-31T07:04:42;12.90;93.80
21108;DHT22;10712;52.944;9.098;2023-08-31T07:07:08;13.00;93.80
21108;DHT22;10712;52.944;9.098;2023-08-31T07:09:35;13.00;93.90
21108;DHT22;10712;52.944;9.098;2023-08-31T07:12:01;13.00;93.80
21108;DHT22;10712;52.944;9.098;2023-08-31T07:14:27;13.00;93.70
21108;DHT22;10712;52.944;9.098;2023-08-31T07:16:53;13.10;93.60
21108;DHT22;10712;52.944;9.098;2023-08-31T07:19:19;13.10;93.70
21108;DHT22;10712;52.944;9.098;2023-08-31T07:21:45;13.10;93.60
21108;DHT22;10712;52.944;9.098;2023-08-31T07:24:12;13.20;93.50
21108;DHT22;10712;52.944;9.098;2023-08-31T07:26:38;13.20;93.40
21108;DHT22;10712;52.944;9.098;2023-08-31T07:29:05;13.20;93.40
21108;DHT22;10712;52.944;9.098;2023-08-31T07:31:31;13.20;93.40
21108;DHT22;10712;52.944;9.098;2023-08-31T07:33:57;13.30;93.40
21108;DHT22;10712;52.944;9.098;2023-08-31T07:36:24;13.30;93.40
21108;DHT22;10712;52.944;9.098;2023-08-31T07:38:50;13.30;93.40
21108;DHT22;10712;52.944;9.098;2023-08-31T07:41:16;13.30;93.30
21108;DHT22;10712;52.944;9.098;2023-08-31T07:43:42;13.30;93.30
21108;DHT22;10712;52.944;9.098;2023-08-31T07:46:08;13.30;93.40
21108;DHT22;10712;52.944;9.098;2023-08-31T07:48:33;13.30;93.50
21108;DHT22;10712;52.944;9.098;2023-08-31T07:50:59;13.30;93.50
21108;DHT22;10712;52.944;9.098;2023-08-31T07:53:25;13.30;93.50
21108;DHT22;10712;52.944;9.098;2023-08-31T07:55:52;13.20;93.60
21108;DHT22;10712;52.944;9.098;2023-08-31T07:58:22;13.20;93.60
21108;DHT22;10712;52.944;9.098;2023-08-31T08:00:51;13.20;93.70
21108;DHT22;10712;52.944;9.098;2023-08-31T08:03:19;13.20;93.80
21108;DHT22;10712;52.944;9.098;2023-08-31T08:05:45;13.20;93.90
21108;DHT22;10712;52.944;9.098;2023-08-31T08:08:10;13.10;94.00
21108;DHT22;10712;52.944;9.098;2023-08-31T08:10:36;13.10;94.00
21108;DHT22;10712;52.944;9.098;2023-08-31T08:13:02;13.10;94.10
21108;DHT22;10712;52.944;9.098;2023-08-31T08:15:29;13.10;94.20
21108;DHT22;10712;52.944;9.098;2023-08-31T08:17:55;13.10;94.20
21108;DHT22;10712;52.944;9.098;2023-08-31T08:20:23;13.10;94.30
21108;DHT22;10712;52.944;9.098;2023-08-31T08:22:49;13.10;94.30
21108;DHT22;10712;52.944;9.098;2023-08-31T08:25:21;13.20;94.30
21108;DHT22;10712;52.944;9.098;2023-08-31T08:27:48;13.20;94.30
21108;DHT22;10712;52.944;9.098;2023-08-31T08:30:14;13.20;94.30
21108;DHT22;10712;52.944;9.098;2023-08-31T08:32:41;13.20;94.30
21108;DHT22;10712;52.944;9.098;2023-08-31T08:35:08;13.20;94.30
21108;DHT22;10712;52.944;9.098;2023-08-31T08:37:33;13.20;94.30
21108;DHT22;10712;52.944;9.098;2023-08-31T08:40:00;13.20;94.30
21108;DHT22;10712;52.944;9.098;2023-08-31T08:42:29;13.20;94.30
21108;DHT22;10712;52.944;9.098;2023-08-31T08:44:58;13.20;94.30
21108;DHT22;10712;52.944;9.098;2023-08-31T08:47:26;13.20;94.30
21108;DHT22;10712;52.944;9.098;2023-08-31T08:49:53;13.20;94.30
21108;DHT22;10712;52.944;9.098;2023-08-31T08:52:22;13.30;94.30
21108;DHT22;10712;52.944;9.098;2023-08-31T08:54:49;13.30;94.30
21108;DHT22;10712;52.944;9.098;2023-08-31T08:57:15;13.30;94.30
21108;DHT22;10712;52.944;9.098;2023-08-31T08:59:41;13.40;94.30
21108;DHT22;10712;52.944;9.098;2023-08-31T09:02:09;13.50;94.30
21108;DHT22;10712;52.944;9.098;2023-08-31T09:04:36;13.60;94.30
21108;DHT22;10712;52.944;9.098;2023-08-31T09:07:02;13.70;94.30
21108;DHT22;10712;52.944;9.098;2023-08-31T09:09:28;13.80;94.30
21108;DHT22;10712;52.944;9.098;2023-08-31T09:11:55;13.90;94.30
21108;DHT22;10712;52.944;9.098;2023-08-31T09:14:23;13.90;94.30
21108;DHT22;10712;52.944;9.098;2023-08-31T09:16:51;14.00;94.30
21108;DHT22;10712;52.944;9.098;2023-08-31T09:19:21;14.10;94.30
21108;DHT22;10712;52.944;9.098;2023-08-31T09:21:50;14.10;94.30
21108;DHT22;10712;52.944;9.098;2023-08-31T09:24:17;14.10;94.30
21108;DHT22;10712;52.944;9.098;2023-08-31T09:26:55;14.20;94.30
21108;DHT22;10712;52.944;9.098;2023-08-31T09:29:22;14.20;94.30
21108;DHT22;10712;52.944;9.098;2023-08-31T09:31:49;14.20;94.30
21108;DHT22;10712;52.944;9.098;2023-08-31T09:34:16;14.30;94.30
21108;DHT22;10712;52.944;9.098;2023-08-31T09:36:44;14.40;94.30
21108;DHT22;10712;52.944;9.098;2023-08-31T09:39:10;14.40;94.30
21108;DHT22;10712;52.944;9.098;2023-08-31T09:41:56;14.50;94.30
21108;DHT22;10712;52.944;9.098;2023-08-31T09:44:22;14.60;94.30
21108;DHT22;10712;52.944;9.098;2023-08-31T09:46:48;14.70;94.20
21108;DHT22;10712;52.944;9.098;2023-08-31T09:49:16;14.70;93.60
21108;DHT22;10712;52.944;9.098;2023-08-31T09:51:47;14.80;93.40
21108;DHT22;10712;52.944;9.098;2023-08-31T09:54:16;14.90;93.30
21108;DHT22;10712;52.944;9.098;2023-08-31T09:56:45;15.00;93.00
21108;DHT22;10712;52.944;9.098;2023-08-31T09:59:13;15.10;91.60
21108;DHT22;10712;52.944;9.098;2023-08-31T10:01:40;15.10;91.00
21108;DHT22;10712;52.944;9.098;2023-08-31T10:04:09;15.10;90.60
21108;DHT22;10712;52.944;9.098;2023-08-31T10:06:38;15.10;90.80
21108;DHT22;10712;52.944;9.098;2023-08-31T10:09:05;15.20;90.90
21108;DHT22;10712;52.944;9.098;2023-08-31T10:11:33;15.20;90.90
21108;DHT22;10712;52.944;9.098;2023-08-31T10:14:00;15.20;90.20
21108;DHT22;10712;52.944;9.098;2023-08-31T10:16:29;15.20;90.40
21108;DHT22;10712;52.944;9.098;2023-08-31T10:18:56;15.30;90.00
21108;DHT22;10712;52.944;9.098;2023-08-31T10:21:23;15.30;89.50
21108;DHT22;10712;52.944;9.098;2023-08-31T10:23:49;15.30;89.70
21108;DHT22;10712;52.944;9.098;2023-08-31T10:26:27;15.30;89.60
21108;DHT22;10712;52.944;9.098;2023-08-31T10:28:53;15.30;89.50
21108;DHT22;10712;52.944;9.098;2023-08-31T10:31:20;15.40;89.40
21108;DHT22;10712;52.944;9.098;2023-08-31T10:34:03;15.40;89.30
21108;DHT22;10712;52.944;9.098;2023-08-31T10:36:50;15.40;89.50
21108;DHT22;10712;52.944;9.098;2023-08-31T10:39:17;15.50;89.80
21108;DHT22;10712;52.944;9.098;2023-08-31T10:41:57;15.60;90.10
21108;DHT22;10712;52.944;9.098;2023-08-31T10:44:31;15.70;90.00
21108;DHT22;10712;52.944;9.098;2023-08-31T10:47:00;15.70;89.40
21108;DHT22;10712;52.944;9.098;2023-08-31T10:49:29;15.70;89.20
21108;DHT22;10712;52.944;9.098;2023-08-31T10:51:56;15.70;89.20
21108;DHT22;10712;52.944;9.098;2023-08-31T10:54:40;15.70;89.00
21108;DHT22;10712;52.944;9.098;2023-08-31T10:57:06;15.80;89.10
21108;DHT22;10712;52.944;9.098;2023-08-31T10:59:51;15.80;89.10
21108;DHT22;10712;52.944;9.098;2023-08-31T11:02:37;16.00;89.10
21108;DHT22;10712;52.944;9.098;2023-08-31T11:05:16;16.10;88.80
21108;DHT22;10712;52.944;9.098;2023-08-31T11:07:44;16.20;88.20
21108;DHT22;10712;52.944;9.098;2023-08-31T11:10:17;16.40;86.20
21108;DHT22;10712;52.944;9.098;2023-08-31T11:12:55;16.50;85.70
21108;DHT22;10712;52.944;9.098;2023-08-31T11:15:25;16.70;85.40
21108;DHT22;10712;52.944;9.098;2023-08-31T11:17:54;16.70;85.20
21108;DHT22;10712;52.944;9.098;2023-08-31T11:20:21;16.80;82.50
21108;DHT22;10712;52.944;9.098;2023-08-31T11:22:50;16.70;80.70
21108;DHT22;10712;52.944;9.098;2023-08-31T11:25:18;16.60;80.80
21108;DHT22;10712;52.944;9.098;2023-08-31T11:27:57;16.50;81.20
21108;DHT22;10712;52.944;9.098;2023-08-31T11:30:30;16.40;80.90
21108;DHT22;10712;52.944;9.098;2023-08-31T11:32:57;16.30;81.20
21108;DHT22;10712;52.944;9.098;2023-08-31T11:35:38;16.20;82.30
21108;DHT22;10712;52.944;9.098;2023-08-31T11:38:07;16.20;83.50
21108;DHT22;10712;52.944;9.098;2023-08-31T11:40:33;16.10;84.70
21108;DHT22;10712;52.944;9.098;2023-08-31T11:42:59;16.20;85.30
21108;DHT22;10712;52.944;9.098;2023-08-31T11:45:29;16.10;85.30
21108;DHT22;10712;52.944;9.098;2023-08-31T11:47:56;16.10;84.90
21108;DHT22;10712;52.944;9.098;2023-08-31T11:50:24;16.00;84.20
21108;DHT22;10712;52.944;9.098;2023-08-31T11:52:51;15.90;83.90
21108;DHT22;10712;52.944;9.098;2023-08-31T11:55:18;15.80;84.30
21108;DHT22;10712;52.944;9.098;2023-08-31T11:57:52;15.80;84.20
21108;DHT22;10712;52.944;9.098;2023-08-31T12:00:21;15.70;84.40
21108;DHT22;10712;52.944;9.098;2023-08-31T12:03:08;15.70;84.70
21108;DHT22;10712;52.944;9.098;2023-08-31T12:05:47;15.80;85.10
21108;DHT22;10712;52.944;9.098;2023-08-31T12:08:14;15.80;85.20
21108;DHT22;10712;52.944;9.098;2023-08-31T12:10:45;15.90;85.20
21108;DHT22;10712;52.944;9.098;2023-08-31T12:13:12;15.90;84.50
21108;DHT22;10712;52.944;9.098;2023-08-31T12:15:38;15.90;84.20
21108;DHT22;10712;52.944;9.098;2023-08-31T12:18:11;16.00;84.10
21108;DHT22;10712;52.944;9.098;2023-08-31T12:20:49;15.90;84.20
21108;DHT22;10712;52.944;9.098;2023-08-31T12:23:19;15.90;84.30
21108;DHT22;10712;52.944;9.098;2023-08-31T12:25:51;15.90;84.30
21108;DHT22;10712;52.944;9.098;2023-08-31T12:28:19;15.80;84.20
21108;DHT22;10712;52.944;9.098;2023-08-31T12:30:53;15.80;84.40
21108;DHT22;10712;52.944;9.098;2023-08-31T12:33:20;15.80;84.80
21108;DHT22;10712;52.944;9.098;2023-08-31T12:35:47;15.90;86.30
21108;DHT22;10712;52.944;9.098;2023-08-31T12:38:13;16.00;85.90
21108;DHT22;10712;52.944;9.098;2023-08-31T12:40:39;16.00;85.20
21108;DHT22;10712;52.944;9.098;2023-08-31T12:43:06;16.00;84.80
21108;DHT22;10712;52.944;9.098;2023-08-31T12:45:32;15.90;84.60
21108;DHT22;10712;52.944;9.098;2023-08-31T12:48:01;15.80;83.70
21108;DHT22;10712;52.944;9.098;2023-08-31T12:50:27;15.60;83.20
21108;DHT22;10712;52.944;9.098;2023-08-31T12:52:52;15.40;82.30
21108;DHT22;10712;52.944;9.098;2023-08-31T12:55:18;15.30;83.30
21108;DHT22;10712;52.944;9.098;2023-08-31T12:57:45;15.20;83.90
21108;DHT22;10712;52.944;9.098;2023-08-31T13:00:11;15.00;83.90
21108;DHT22;10712;52.944;9.098;2023-08-31T13:02:38;14.80;84.00
21108;DHT22;10712;52.944;9.098;2023-08-31T13:05:05;14.50;84.80
21108;DHT22;10712;52.944;9.098;2023-08-31T13:07:31;14.30;85.70
21108;DHT22;10712;52.944;9.098;2023-08-31T13:10:04;14.20;86.40
21108;DHT22;10712;52.944;9.098;2023-08-31T13:12:31;14.10;87.00
21108;DHT22;10712;52.944;9.098;2023-08-31T13:14:59;14.10;87.60
21108;DHT22;10712;52.944;9.098;2023-08-31T13:17:26;14.10;88.30
21108;DHT22;10712;52.944;9.098;2023-08-31T13:19:53;14.10;88.90
21108;DHT22;10712;52.944;9.098;2023-08-31T13:22:20;14.20;89.30
21108;DHT22;10712;52.944;9.098;2023-08-31T13:24:47;14.30;89.10
21108;DHT22;10712;52.944;9.098;2023-08-31T13:27:13;14.30;89.50
21108;DHT22;10712;52.944;9.098;2023-08-31T13:29:39;14.40;89.20
21108;DHT22;10712;52.944;9.098;2023-08-31T13:32:05;14.50;89.30
21108;DHT22;10712;52.944;9.098;2023-08-31T13:34:33;14.50;89.20
21108;DHT22;10712;52.944;9.098;2023-08-31T13:36:59;14.70;89.60
21108;DHT22;10712;52.944;9.098;2023-08-31T13:39:26;14.80;89.60
21108;DHT22;10712;52.944;9.098;2023-08-31T13:41:52;14.90;89.60
21108;DHT22;10712;52.944;9.098;2023-08-31T13:44:19;15.00;88.90
21108;DHT22;10712;52.944;9.098;2023-08-31T13:46:48;15.00;88.70
21108;DHT22;10712;52.944;9.098;2023-08-31T13:49:15;15.10;88.70
21108;DHT22;10712;52.944;9.098;2023-08-31T13:51:41;15.20;89.00
21108;DHT22;10712;52.944;9.098;2023-08-31T13:54:08;15.30;88.40
21108;DHT22;10712;52.944;9.098;2023-08-31T13:56:34;15.40;88.60
21108;DHT22;10712;52.944;9.098;2023-08-31T13:59:00;15.40;88.10
21108;DHT22;10712;52.944;9.098;2023-08-31T14:01:26;15.40;88.30
21108;DHT22;10712;52.944;9.098;2023-08-31T14:03:52;15.40;88.00
21108;DHT22;10712;52.944;9.098;2023-08-31T14:06:18;15.60;87.60
21108;DHT22;10712;52.944;9.098;2023-08-31T14:08:44;15.60;87.00
21108;DHT22;10712;52.944;9.098;2023-08-31T14:11:10;15.70;87.00
21108;DHT22;10712;52.944;9.098;2023-08-31T14:13:36;15.70;87.10
21108;DHT22;10712;52.944;9.098;2023-08-31T14:16:01;15.70;87.40
21108;DHT22;10712;52.944;9.098;2023-08-31T14:18:28;15.70;87.70
21108;DHT22;10712;52.944;9.098;2023-08-31T14:20:56;15.70;88.00
21108;DHT22;10712;52.944;9.098;2023-08-31T14:23:23;15.70;88.30
21108;DHT22;10712;52.944;9.098;2023-08-31T14:25:49;15.70;88.50
21108;DHT22;10712;52.944;9.098;2023-08-31T14:28:15;15.60;88.70
21108;DHT22;10712;52.944;9.098;2023-08-31T14:30:41;15.60;88.80
21108;DHT22;10712;52.944;9.098;2023-08-31T14:33:06;15.50;88.70
21108;DHT22;10712;52.944;9.098;2023-08-31T14:35:36;15.50;88.60
21108;DHT22;10712;52.944;9.098;2023-08-31T14:38:05;15.40;88.50
21108;DHT22;10712;52.944;9.098;2023-08-31T14:40:31;15.30;88.50
21108;DHT22;10712;52.944;9.098;2023-08-31T14:42:59;15.20;88.50
21108;DHT22;10712;52.944;9.098;2023-08-31T14:45:26;15.10;88.50
21108;DHT22;10712;52.944;9.098;2023-08-31T14:47:51;15.00;88.90
21108;DHT22;10712;52.944;9.098;2023-08-31T14:50:17;15.00;89.10
21108;DHT22;10712;52.944;9.098;2023-08-31T14:52:43;14.90;89.40
21108;DHT22;10712;52.944;9.098;2023-08-31T14:55:09;14.90;89.40
21108;DHT22;10712;52.944;9.098;2023-08-31T14:57:34;14.80;89.40
21108;DHT22;10712;52.944;9.098;2023-08-31T15:00:00;14.80;89.60
21108;DHT22;10712;52.944;9.098;2023-08-31T15:02:27;14.70;89.60
21108;DHT22;10712;52.944;9.098;2023-08-31T15:04:52;14.70;89.80
21108;DHT22;10712;52.944;9.098;2023-08-31T15:07:18;14.70;89.90
21108;DHT22;10712;52.944;9.098;2023-08-31T15:09:44;14.80;90.10
21108;DHT22;10712;52.944;9.098;2023-08-31T15:12:11;14.70;89.90
21108;DHT22;10712;52.944;9.098;2023-08-31T15:14:37;14.80;90.00
21108;DHT22;10712;52.944;9.098;2023-08-31T15:17:06;14.80;90.00
21108;DHT22;10712;52.944;9.098;2023-08-31T15:19:32;14.80;90.00
21108;DHT22;10712;52.944;9.098;2023-08-31T15:21:58;14.90;90.00
21108;DHT22;10712;52.944;9.098;2023-08-31T15:24:25;14.90;90.00
21108;DHT22;10712;52.944;9.098;2023-08-31T15:26:51;14.90;90.20
21108;DHT22;10712;52.944;9.098;2023-08-31T15:29:16;14.90;90.30
21108;DHT22;10712;52.944;9.098;2023-08-31T15:31:42;14.90;90.40
21108;DHT22;10712;52.944;9.098;2023-08-31T15:34:11;14.90;90.60